createdAt,value
2023-04-09T00:02:15.747Z,70.05
2023-04-09T00:04:42.376Z,73.97
2023-04-09T00:07:09.125Z,73.15
2023-04-09T00:09:35.801Z,70.55
2023-04-09T00:12:03.397Z,75.25
2023-04-09T00:14:30.277Z,78.40
2023-04-09T00:16:56.904Z,78.65
2023-04-09T00:19:23.485Z,81.07
2023-04-09T00:21:50.239Z,79.20
2023-04-09T00:24:16.831Z,77.10
2023-04-09T00:26:43.457Z,79.88
2023-04-09T00:29:10.444Z,79.97
2023-04-09T00:31:37.039Z,80.60
2023-04-09T00:34:03.682Z,77.90
2023-04-09T00:36:30.854Z,79.00
2023-04-09T00:38:58.571Z,84.57
2023-04-09T00:41:25.415Z,81.70
2023-04-09T00:43:52.022Z,80.15
2023-04-09T00:46:18.955Z,86.43
2023-04-09T00:48:45.669Z,82.57
2023-04-09T00:51:12.290Z,85.82
2023-04-09T00:53:39.133Z,78.70
2023-04-09T00:56:06.558Z,75.63
2023-04-09T00:58:33.510Z,78.68
2023-04-09T01:01:00.276Z,81.97
2023-04-09T01:03:27.002Z,83.88
2023-04-09T01:06:17.597Z,83.63
2023-04-09T01:09:20.432Z,80.20
2023-04-09T01:12:10.564Z,76.20
2023-04-09T01:15:02.832Z,74.68
2023-04-09T01:17:44.073Z,76.60
2023-04-09T01:20:19.167Z,82.28
2023-04-09T01:23:14.113Z,83.30
2023-04-09T01:26:04.964Z,78.90
2023-04-09T01:28:47.418Z,75.22
2023-04-09T01:31:17.261Z,82.93
2023-04-09T01:33:45.426Z,88.22
2023-04-09T01:36:14.336Z,91.75
2023-04-09T01:38:42.784Z,88.70
2023-04-09T01:41:17.280Z,81.38
2023-04-09T01:43:45.344Z,82.15
2023-04-09T01:46:12.842Z,83.35
2023-04-09T01:48:40.240Z,85.13
2023-04-09T01:51:06.995Z,90.28
2023-04-09T01:53:33.639Z,88.70
2023-04-09T01:56:01.303Z,93.35
2023-04-09T01:58:28.137Z,96.53
2023-04-09T02:01:01.985Z,88.97
2023-04-09T02:03:47.116Z,88.95
2023-04-09T02:06:22.575Z,91.57
2023-04-09T02:08:52.453Z,91.40
2023-04-09T02:11:21.558Z,87.85
2023-04-09T02:13:51.624Z,88.03
2023-04-09T02:16:19.183Z,89.93
2023-04-09T02:18:46.109Z,84.15
2023-04-09T02:21:13.604Z,90.07
2023-04-09T02:23:40.983Z,89.20
2023-04-09T02:26:07.632Z,83.57
2023-04-09T02:28:34.333Z,86.53
2023-04-09T02:31:01.669Z,93.30
2023-04-09T02:33:30.315Z,82.70
2023-04-09T02:35:56.932Z,80.35
2023-04-09T02:38:24.762Z,84.63
2023-04-09T02:40:51.369Z,83.05
2023-04-09T02:43:18.008Z,82.38
2023-04-09T02:45:44.658Z,85.40
2023-04-09T02:48:11.289Z,93.63
2023-04-09T02:50:37.947Z,91.20
2023-04-09T02:53:04.592Z,85.00
2023-04-09T02:55:31.368Z,85.05
2023-04-09T02:57:58.035Z,80.93
2023-04-09T03:00:24.675Z,89.80
2023-04-09T03:02:51.712Z,88.72
2023-04-09T03:05:18.386Z,84.93
2023-04-09T03:07:45.513Z,85.10
2023-04-09T03:10:12.117Z,95.15
2023-04-09T03:12:38.720Z,90.65
2023-04-09T03:15:06.108Z,92.93
2023-04-09T03:17:32.764Z,86.22
2023-04-09T03:19:59.424Z,89.38
2023-04-09T03:22:39.641Z,88.72
2023-04-09T03:25:29.576Z,84.57
2023-04-09T03:27:56.170Z,87.65
2023-04-09T03:30:32.671Z,93.75
2023-04-09T03:33:01.769Z,89.65
2023-04-09T03:35:30.909Z,91.70
2023-04-09T03:37:59.551Z,82.53
2023-04-09T03:40:26.234Z,86.68
2023-04-09T03:42:52.817Z,89.43
2023-04-09T03:45:19.836Z,92.18
2023-04-09T03:47:49.050Z,101.60
2023-04-09T03:50:17.628Z,98.90
2023-04-09T03:52:50.933Z,93.10
2023-04-09T03:55:18.330Z,98.93
2023-04-09T03:57:45.150Z,107.97
2023-04-09T04:00:16.106Z,96.82
2023-04-09T04:03:00.773Z,90.43
2023-04-09T04:05:47.544Z,106.43
2023-04-09T04:08:16.319Z,101.47
2023-04-09T04:10:43.043Z,83.68
2023-04-09T04:13:11.621Z,80.78
2023-04-09T04:15:47.256Z,74.20
2023-04-09T04:18:15.615Z,80.68
2023-04-09T04:20:48.712Z,86.32
2023-04-09T04:23:15.522Z,91.65
2023-04-09T04:26:12.030Z,88.00
2023-04-09T04:28:40.659Z,92.90
2023-04-09T04:31:12.564Z,85.45
2023-04-09T04:33:42.048Z,91.10
2023-04-09T04:36:14.022Z,99.85
2023-04-09T04:38:51.909Z,94.85
2023-04-09T04:41:26.974Z,92.25
2023-04-09T04:44:05.573Z,89.20
2023-04-09T04:46:32.321Z,91.82
2023-04-09T04:48:59.209Z,96.65
2023-04-09T04:51:27.642Z,88.60
2023-04-09T04:54:02.482Z,87.25
2023-04-09T04:56:30.042Z,86.28
2023-04-09T04:59:09.956Z,91.03
2023-04-09T05:01:55.028Z,85.88
2023-04-09T05:04:21.795Z,83.22
2023-04-09T05:06:48.459Z,90.60
2023-04-09T05:09:21.862Z,88.60
2023-04-09T05:11:58.824Z,86.60
2023-04-09T05:14:26.161Z,80.45
2023-04-09T05:16:53.256Z,78.82
2023-04-09T05:19:24.081Z,81.50
2023-04-09T05:21:57.051Z,78.97
2023-04-09T05:24:24.220Z,85.57
2023-04-09T05:26:51.005Z,88.82
2023-04-09T05:29:17.621Z,88.03
2023-04-09T05:31:44.300Z,79.32
2023-04-09T05:34:20.492Z,85.43
2023-04-09T05:36:51.072Z,84.88
2023-04-09T05:39:19.527Z,85.55
2023-04-09T05:41:46.436Z,78.70
2023-04-09T05:44:30.979Z,86.22
2023-04-09T05:47:06.347Z,81.60
2023-04-09T05:49:44.526Z,82.45
2023-04-09T05:52:16.875Z,89.68
2023-04-09T05:54:43.949Z,91.88
2023-04-09T05:57:11.821Z,89.72
2023-04-09T05:59:41.786Z,87.82
2023-04-09T06:02:08.599Z,92.57
2023-04-09T06:04:35.447Z,89.63
2023-04-09T06:07:02.401Z,91.57
2023-04-09T06:09:29.112Z,91.75
2023-04-09T06:11:57.535Z,87.75
2023-04-09T06:14:24.447Z,87.85
2023-04-09T06:16:51.198Z,79.97
2023-04-09T06:19:18.666Z,83.25
2023-04-09T06:21:45.482Z,92.78
2023-04-09T06:24:12.169Z,81.10
2023-04-09T06:26:38.826Z,84.13
2023-04-09T06:29:05.691Z,79.88
2023-04-09T06:31:32.496Z,79.95
2023-04-09T06:33:59.894Z,78.80
2023-04-09T06:36:27.712Z,79.65
2023-04-09T06:38:54.679Z,85.00
2023-04-09T06:41:22.433Z,76.80
2023-04-09T06:43:49.776Z,84.00
2023-04-09T06:46:19.939Z,76.80
2023-04-09T06:48:47.064Z,77.95
2023-04-09T06:51:14.826Z,80.00
2023-04-09T06:53:41.990Z,76.35
2023-04-09T06:56:09.107Z,76.63
2023-04-09T06:58:36.125Z,74.53
2023-04-09T07:01:03.031Z,72.25
2023-04-09T07:03:30.028Z,71.20
2023-04-09T07:05:57.594Z,72.75
2023-04-09T07:08:24.752Z,69.53
2023-04-09T07:10:51.621Z,71.53
2023-04-09T07:13:18.717Z,55.88
2023-04-09T07:15:45.823Z,48.08
2023-04-09T07:18:12.740Z,47.03
2023-04-09T07:20:39.709Z,42.22
2023-04-09T07:23:06.456Z,45.28
2023-04-09T07:25:33.915Z,47.42
2023-04-09T07:28:00.845Z,43.72
2023-04-09T07:30:27.871Z,46.10
2023-04-09T07:32:55.065Z,47.55
2023-04-09T07:35:21.950Z,49.17
2023-04-09T07:37:48.709Z,47.53
2023-04-09T07:40:15.994Z,49.22
2023-04-09T07:42:42.732Z,53.33
2023-04-09T07:45:10.077Z,57.75
2023-04-09T07:47:37.995Z,50.80
2023-04-09T07:50:05.385Z,50.47
2023-04-09T07:52:32.062Z,62.72
2023-04-09T07:54:58.887Z,51.88
2023-04-09T07:57:26.444Z,56.08
2023-04-09T07:59:54.120Z,56.47
2023-04-09T08:02:21.348Z,58.88
2023-04-09T08:04:48.151Z,57.25
2023-04-09T08:07:15.123Z,59.30
2023-04-09T08:09:41.997Z,56.67
2023-04-09T08:12:08.905Z,47.88
2023-04-09T08:14:36.036Z,51.10
2023-04-09T08:17:03.234Z,49.97
2023-04-09T08:19:30.089Z,55.00
2023-04-09T08:21:58.737Z,57.60
2023-04-09T08:24:25.835Z,57.78
2023-04-09T08:26:52.509Z,54.95
2023-04-09T08:29:19.339Z,55.72
2023-04-09T08:31:46.031Z,55.05
2023-04-09T08:34:15.265Z,55.50
2023-04-09T08:36:45.696Z,50.65
2023-04-09T08:39:13.057Z,53.72
2023-04-09T08:41:45.810Z,51.70
2023-04-09T08:44:12.500Z,52.03
2023-04-09T08:46:39.260Z,52.88
2023-04-09T08:49:08.256Z,52.58
2023-04-09T08:51:34.941Z,50.85
2023-04-09T08:54:04.422Z,50.65
2023-04-09T08:56:32.036Z,52.63
2023-04-09T08:58:59.077Z,50.40
2023-04-09T09:01:28.899Z,52.03
2023-04-09T09:04:06.823Z,50.50
2023-04-09T09:06:40.177Z,51.33
2023-04-09T09:09:08.919Z,43.17
2023-04-09T09:11:45.457Z,45.05
2023-04-09T09:14:16.798Z,45.40
2023-04-09T09:17:03.536Z,41.53
2023-04-09T09:19:36.337Z,44.03
2023-04-09T09:22:04.817Z,43.78
2023-04-09T09:24:34.913Z,45.33
2023-04-09T09:27:02.958Z,43.65
2023-04-09T09:29:29.875Z,46.85
2023-04-09T09:31:57.201Z,42.97
2023-04-09T09:34:25.198Z,50.70
2023-04-09T09:36:52.477Z,56.00
2023-04-09T09:39:19.663Z,60.20
2023-04-09T09:41:47.145Z,51.15
2023-04-09T09:44:31.898Z,49.65
2023-04-09T09:46:59.537Z,49.60
2023-04-09T09:49:26.346Z,48.60
2023-04-09T09:51:56.203Z,50.88
2023-04-09T09:54:25.382Z,47.67
2023-04-09T09:56:55.596Z,49.72
2023-04-09T09:59:26.973Z,46.08
2023-04-09T10:02:01.391Z,44.40
2023-04-09T10:04:30.004Z,42.22
2023-04-09T10:06:57.670Z,43.45
2023-04-09T10:09:27.742Z,40.90
2023-04-09T10:11:56.429Z,42.55
2023-04-09T10:14:24.445Z,45.17
2023-04-09T10:16:51.435Z,47.55
2023-04-09T10:19:18.530Z,44.40
2023-04-09T10:22:10.352Z,43.90
2023-04-09T10:24:37.320Z,45.30
2023-04-09T10:27:17.102Z,54.78
2023-04-09T10:29:49.098Z,51.10
2023-04-09T10:32:26.405Z,46.17
2023-04-09T10:34:57.481Z,49.03
2023-04-09T10:37:26.002Z,47.92
2023-04-09T10:39:53.894Z,46.53
2023-04-09T10:42:32.650Z,47.55
2023-04-09T10:45:06.801Z,48.53
2023-04-09T10:47:35.900Z,49.85
2023-04-09T10:50:16.347Z,48.42
2023-04-09T10:52:44.155Z,48.92
2023-04-09T10:55:31.383Z,48.45
2023-04-09T10:57:58.762Z,46.40
2023-04-09T11:00:25.594Z,46.08
2023-04-09T11:03:32.731Z,45.88
2023-04-09T11:06:11.704Z,46.30
2023-04-09T11:08:38.952Z,46.17
2023-04-09T11:11:06.027Z,48.35
2023-04-09T11:13:32.982Z,47.88
2023-04-09T11:16:01.121Z,47.28
2023-04-09T11:18:30.141Z,47.97
2023-04-09T11:21:03.349Z,51.47
2023-04-09T11:23:30.963Z,49.40
2023-04-09T11:25:57.630Z,53.40
2023-04-09T11:28:25.210Z,49.72
2023-04-09T11:30:52.512Z,52.42
2023-04-09T11:33:20.411Z,50.33
2023-04-09T11:35:47.788Z,48.33
2023-04-09T11:38:14.650Z,48.10
2023-04-09T11:40:49.499Z,48.40
2023-04-09T11:43:17.861Z,47.85
2023-04-09T11:45:48.053Z,48.78
2023-04-09T11:48:17.986Z,49.85
2023-04-09T11:50:45.538Z,47.75
2023-04-09T11:53:16.815Z,47.72
2023-04-09T11:55:46.309Z,48.35
2023-04-09T11:58:13.263Z,48.10
2023-04-09T12:00:42.798Z,46.50
2023-04-09T12:03:10.760Z,49.55
2023-04-09T12:05:40.636Z,48.30
2023-04-09T12:08:09.036Z,56.83
2023-04-09T12:10:38.126Z,50.25
2023-04-09T12:13:13.498Z,50.72
2023-04-09T12:15:43.277Z,49.05
2023-04-09T12:18:12.244Z,44.25
2023-04-09T12:20:44.029Z,49.15
2023-04-09T12:23:12.144Z,49.53
2023-04-09T12:25:41.631Z,47.42
2023-04-09T12:28:11.087Z,46.15
2023-04-09T12:30:38.370Z,47.58
2023-04-09T12:33:05.253Z,49.28
2023-04-09T12:35:32.185Z,47.60
2023-04-09T12:38:01.706Z,47.70
2023-04-09T12:40:28.925Z,47.75
2023-04-09T12:42:55.746Z,46.85
2023-04-09T12:45:22.987Z,48.85
2023-04-09T12:47:49.997Z,49.08
2023-04-09T12:50:17.015Z,50.17
2023-04-09T12:52:44.244Z,51.53
2023-04-09T12:55:12.673Z,50.22
2023-04-09T12:57:42.293Z,48.15
2023-04-09T13:00:09.658Z,49.15
2023-04-09T13:02:36.888Z,48.00
2023-04-09T13:05:07.274Z,47.75
2023-04-09T13:07:33.941Z,50.97
2023-04-09T13:10:00.724Z,49.78
2023-04-09T13:12:27.440Z,49.55
2023-04-09T13:14:54.822Z,51.28
2023-04-09T13:17:22.073Z,48.13
2023-04-09T13:19:49.609Z,49.65
2023-04-09T13:22:16.681Z,49.13
2023-04-09T13:24:43.417Z,47.85
2023-04-09T13:27:11.187Z,48.80
2023-04-09T13:29:38.628Z,50.05
2023-04-09T13:32:07.333Z,52.78
2023-04-09T13:34:35.135Z,51.35
2023-04-09T13:37:05.313Z,50.17
2023-04-09T13:39:32.775Z,51.33
2023-04-09T13:42:00.295Z,47.60
2023-04-09T13:44:27.287Z,46.15
2023-04-09T13:46:54.091Z,48.28
2023-04-09T13:49:21.034Z,47.70
2023-04-09T13:51:50.018Z,50.15
2023-04-09T13:54:17.680Z,51.38
2023-04-09T13:56:46.034Z,50.20
2023-04-09T13:59:12.826Z,49.45
2023-04-09T14:01:39.583Z,54.00
2023-04-09T14:04:06.397Z,50.58
2023-04-09T14:06:33.674Z,51.35
2023-04-09T14:09:00.380Z,51.75
2023-04-09T14:11:27.195Z,50.05
2023-04-09T14:13:54.696Z,54.05
2023-04-09T14:16:21.566Z,57.10
2023-04-09T14:18:48.241Z,52.40
2023-04-09T14:21:15.407Z,58.70
2023-04-09T14:23:42.115Z,47.95
2023-04-09T14:26:08.833Z,53.08
2023-04-09T14:28:36.387Z,49.63
2023-04-09T14:31:03.283Z,46.95
2023-04-09T14:33:30.708Z,47.92
2023-04-09T14:35:58.560Z,49.20
2023-04-09T14:38:25.706Z,52.85
2023-04-09T14:40:52.629Z,59.08
2023-04-09T14:43:19.574Z,53.28
2023-04-09T14:45:46.205Z,61.30
2023-04-09T14:48:12.951Z,50.88
2023-04-09T14:50:41.080Z,45.33
2023-04-09T14:53:07.732Z,45.53
2023-04-09T14:55:34.622Z,52.50
2023-04-09T14:58:04.219Z,51.58
2023-04-09T15:00:31.774Z,49.90
2023-04-09T15:02:58.999Z,49.92
2023-04-09T15:05:26.363Z,49.55
2023-04-09T15:07:53.890Z,51.33
2023-04-09T15:10:20.961Z,52.38
2023-04-09T15:12:47.583Z,50.30
2023-04-09T15:15:14.486Z,50.22
2023-04-09T15:17:41.148Z,53.67
2023-04-09T15:20:08.377Z,55.67
2023-04-09T15:22:36.542Z,52.95
2023-04-09T15:25:03.493Z,49.30
2023-04-09T15:27:30.315Z,51.17
2023-04-09T15:29:57.042Z,51.45
2023-04-09T15:32:23.698Z,52.25
2023-04-09T15:34:50.539Z,52.55
2023-04-09T15:37:17.265Z,51.55
2023-04-09T15:39:44.057Z,51.90
2023-04-09T15:42:11.661Z,49.60
2023-04-09T15:44:40.381Z,49.92
2023-04-09T15:47:06.980Z,48.22
2023-04-09T15:49:35.509Z,48.53
2023-04-09T15:52:02.118Z,48.80
2023-04-09T15:54:28.730Z,49.45
2023-04-09T15:56:55.366Z,49.45
2023-04-09T15:59:22.547Z,49.45
2023-04-09T16:01:49.220Z,49.55
2023-04-09T16:04:15.949Z,46.38
2023-04-09T16:06:42.635Z,48.28
2023-04-09T16:09:09.356Z,52.45
2023-04-09T16:11:36.209Z,47.75
2023-04-09T16:14:03.686Z,49.70
2023-04-09T16:16:30.749Z,46.40
2023-04-09T16:18:57.406Z,47.90
2023-04-09T16:21:23.992Z,48.50
2023-04-09T16:23:50.650Z,45.97
2023-04-09T16:26:17.263Z,49.38
2023-04-09T16:28:43.884Z,46.88
2023-04-09T16:31:10.565Z,47.60
2023-04-09T16:33:37.141Z,45.92
2023-04-09T16:36:04.048Z,45.70
2023-04-09T16:38:31.217Z,47.85
2023-04-09T16:40:57.936Z,45.30
2023-04-09T16:43:25.344Z,48.17
2023-04-09T16:45:52.187Z,47.45
2023-04-09T16:48:19.195Z,48.13
2023-04-09T16:50:46.288Z,50.22
2023-04-09T16:53:12.979Z,49.63
2023-04-09T16:55:39.590Z,48.88
2023-04-09T16:58:06.255Z,48.65
2023-04-09T17:00:35.178Z,47.60
2023-04-09T17:03:02.222Z,58.88
2023-04-09T17:05:29.387Z,68.07
2023-04-09T17:07:56.093Z,56.78
2023-04-09T17:10:22.710Z,43.50
2023-04-09T17:12:50.531Z,41.40
2023-04-09T17:15:17.730Z,43.97
2023-04-09T17:17:47.721Z,44.70
2023-04-09T17:20:14.394Z,42.80
2023-04-09T17:22:41.062Z,43.70
2023-04-09T17:25:08.601Z,43.80
2023-04-09T17:27:35.546Z,43.42
2023-04-09T17:30:04.183Z,42.78
2023-04-09T17:32:31.383Z,45.25
2023-04-09T17:34:59.424Z,45.58
2023-04-09T17:37:28.497Z,46.28
2023-04-09T17:39:55.348Z,46.42
2023-04-09T17:42:23.232Z,46.22
2023-04-09T17:44:50.465Z,45.30
2023-04-09T17:47:17.772Z,44.72
2023-04-09T17:49:45.698Z,45.65
2023-04-09T17:52:13.032Z,55.30
2023-04-09T17:54:39.726Z,49.70
2023-04-09T17:57:07.045Z,45.65
2023-04-09T17:59:34.537Z,48.60
2023-04-09T18:02:01.976Z,46.25
2023-04-09T18:04:29.040Z,46.88
2023-04-09T18:06:56.256Z,34.80
2023-04-09T18:09:22.915Z,33.33
2023-04-09T18:11:53.310Z,31.08
2023-04-09T18:14:20.164Z,29.73
2023-04-09T18:16:47.149Z,33.17
2023-04-09T18:19:13.989Z,31.58
2023-04-09T18:21:40.669Z,30.98
2023-04-09T18:24:07.956Z,32.03
2023-04-09T18:26:34.710Z,30.98
2023-04-09T18:29:01.762Z,31.17
2023-04-09T18:31:28.692Z,31.00
2023-04-09T18:33:56.501Z,30.08
2023-04-09T18:36:24.173Z,31.48
2023-04-09T18:38:51.803Z,31.08
2023-04-09T18:41:26.402Z,31.10
2023-04-09T18:43:53.785Z,30.73
2023-04-09T18:46:20.472Z,32.17
2023-04-09T18:48:47.312Z,31.35
2023-04-09T18:51:18.881Z,30.88
2023-04-09T18:53:52.576Z,30.20
2023-04-09T18:56:19.934Z,29.73
2023-04-09T18:58:51.972Z,30.75
2023-04-09T19:01:19.963Z,32.00
2023-04-09T19:03:47.490Z,32.20
2023-04-09T19:06:19.199Z,31.80
2023-04-09T19:08:47.164Z,30.20
2023-04-09T19:11:14.812Z,28.42
2023-04-09T19:13:41.431Z,31.30
2023-04-09T19:16:11.245Z,32.50
2023-04-09T19:18:38.062Z,37.35
2023-04-09T19:21:07.240Z,36.30
2023-04-09T19:23:34.515Z,33.17
2023-04-09T19:26:02.053Z,31.63
2023-04-09T19:28:28.851Z,30.50
2023-04-09T19:30:55.615Z,30.58
2023-04-09T19:33:24.046Z,30.55
2023-04-09T19:35:52.161Z,31.00
2023-04-09T19:38:19.396Z,32.47
2023-04-09T19:40:46.736Z,34.65
2023-04-09T19:43:13.801Z,35.10
2023-04-09T19:45:42.449Z,34.47
2023-04-09T19:48:09.352Z,34.60
2023-04-09T19:50:37.781Z,33.85
2023-04-09T19:53:05.832Z,36.65
2023-04-09T19:55:33.486Z,38.80
2023-04-09T19:58:00.777Z,34.67
2023-04-09T20:00:28.150Z,37.25
2023-04-09T20:02:55.705Z,35.28
2023-04-09T20:05:22.648Z,36.22
2023-04-09T20:07:49.861Z,34.95
2023-04-09T20:10:16.953Z,33.35
2023-04-09T20:12:47.602Z,34.85
2023-04-09T20:15:14.680Z,35.22
2023-04-09T20:17:41.720Z,34.92
2023-04-09T20:20:08.821Z,34.95
2023-04-09T20:22:35.574Z,35.90
2023-04-09T20:25:02.427Z,34.75
2023-04-09T20:27:29.166Z,34.97
2023-04-09T20:29:56.290Z,35.60
2023-04-09T20:32:23.013Z,33.55
2023-04-09T20:34:49.715Z,33.38
2023-04-09T20:37:16.339Z,33.75
2023-04-09T20:39:43.130Z,33.85
2023-04-09T20:42:09.731Z,33.22
2023-04-09T20:44:36.562Z,33.90
2023-04-09T20:47:03.614Z,31.70
2023-04-09T20:49:30.505Z,32.70
2023-04-09T20:51:57.117Z,31.65
2023-04-09T20:54:23.774Z,32.08
2023-04-09T20:56:51.163Z,32.13
2023-04-09T20:59:18.982Z,30.45
2023-04-09T21:01:45.715Z,31.10
2023-04-09T21:04:12.907Z,30.48
2023-04-09T21:06:40.312Z,29.33
2023-04-09T21:09:07.066Z,30.00
2023-04-09T21:11:33.973Z,31.00
2023-04-09T21:14:00.670Z,30.25
2023-04-09T21:16:29.578Z,31.85
2023-04-09T21:18:56.463Z,32.88
2023-04-09T21:21:23.345Z,30.70
2023-04-09T21:23:50.061Z,29.90
2023-04-09T21:26:16.727Z,32.03
2023-04-09T21:28:43.874Z,29.95
2023-04-09T21:31:11.129Z,30.63
2023-04-09T21:33:39.036Z,31.92
2023-04-09T21:36:07.497Z,32.90
2023-04-09T21:38:34.246Z,29.75
2023-04-09T21:41:01.640Z,28.90
2023-04-09T21:43:29.052Z,29.52
2023-04-09T21:45:56.975Z,32.10
2023-04-09T21:48:24.024Z,30.83
2023-04-09T21:50:50.818Z,30.27
2023-04-09T21:53:17.785Z,29.98
2023-04-09T21:55:44.570Z,31.92
2023-04-09T21:58:12.469Z,31.90
2023-04-09T22:00:39.073Z,30.42
2023-04-09T22:03:06.119Z,31.42
2023-04-09T22:05:36.598Z,34.47
2023-04-09T22:08:03.344Z,30.27
2023-04-09T22:10:30.062Z,31.35
2023-04-09T22:12:56.694Z,29.95
2023-04-09T22:15:23.495Z,32.22
2023-04-09T22:17:50.155Z,32.65
2023-04-09T22:20:16.847Z,34.13
2023-04-09T22:22:43.755Z,31.85
2023-04-09T22:25:11.543Z,31.90
2023-04-09T22:27:38.314Z,30.50
2023-04-09T22:30:05.672Z,30.67
2023-04-09T22:32:33.363Z,30.58
2023-04-09T22:35:00.140Z,32.30
2023-04-09T22:37:27.561Z,32.08
2023-04-09T22:39:54.181Z,34.03
2023-04-09T22:42:20.844Z,32.20
2023-04-09T22:44:47.450Z,33.40
2023-04-09T22:47:14.035Z,32.42
2023-04-09T22:49:40.674Z,33.67
2023-04-09T22:52:08.208Z,33.97
2023-04-09T22:54:35.335Z,35.10
2023-04-09T22:57:02.046Z,37.15
2023-04-09T22:59:38.939Z,33.47
2023-04-09T23:02:06.356Z,31.17
2023-04-09T23:04:34.677Z,33.15
2023-04-09T23:07:02.128Z,35.85
2023-04-09T23:09:30.149Z,32.88
2023-04-09T23:11:57.007Z,33.45
2023-04-09T23:14:23.645Z,34.70
2023-04-09T23:16:50.269Z,35.78
2023-04-09T23:19:16.869Z,44.75
2023-04-09T23:21:43.609Z,46.88
2023-04-09T23:24:10.365Z,48.75
2023-04-09T23:26:37.160Z,46.28
2023-04-09T23:29:03.742Z,41.33
2023-04-09T23:31:30.364Z,41.90
2023-04-09T23:33:57.005Z,43.53
2023-04-09T23:36:24.071Z,40.92
2023-04-09T23:38:50.818Z,40.45
2023-04-09T23:41:17.508Z,41.45
2023-04-09T23:43:44.160Z,43.40
2023-04-09T23:46:10.799Z,41.97
2023-04-09T23:48:37.449Z,41.17
2023-04-09T23:51:04.340Z,38.92
2023-04-09T23:53:31.180Z,39.17
2023-04-09T23:58:46.308Z,39.70
